createdAt,value
2019-01-05T00:02:05.213Z,16.45
2019-01-05T00:04:53.626Z,18.20
2019-01-05T00:07:49.449Z,19.62
2019-01-05T00:10:34.212Z,18.60
2019-01-05T00:13:33.516Z,17.07
2019-01-05T00:16:22.683Z,18.45
2019-01-05T00:19:19.547Z,15.80
2019-01-05T00:22:18.125Z,18.77
2019-01-05T00:25:19.702Z,15.28
2019-01-05T00:28:18.890Z,19.35
2019-01-05T00:31:08.755Z,17.02
2019-01-05T00:33:59.161Z,19.00
2019-01-05T00:37:06.454Z,20.48
2019-01-05T00:40:00.044Z,18.37
2019-01-05T00:42:49.104Z,18.70
2019-01-05T00:45:48.191Z,18.30
2019-01-05T00:48:39.401Z,15.30
2019-01-05T00:51:23.165Z,18.55
2019-01-05T00:54:28.692Z,15.40
2019-01-05T00:57:32.218Z,18.73
2019-01-05T01:00:24.037Z,22.17
2019-01-05T01:03:19.343Z,18.50
2019-01-05T01:06:14.661Z,22.75
2019-01-05T01:09:16.817Z,13.72
2019-01-05T01:12:15.617Z,15.08
2019-01-05T01:15:04.177Z,20.48
2019-01-05T01:17:52.637Z,14.65
2019-01-05T01:20:37.896Z,16.35
2019-01-05T01:23:27.676Z,17.60
2019-01-05T01:26:16.030Z,23.42
2019-01-05T01:29:09.293Z,19.73
2019-01-05T01:31:57.844Z,18.23
2019-01-05T01:34:48.244Z,19.65
2019-01-05T01:37:37.556Z,16.35
2019-01-05T01:40:31.510Z,18.30
2019-01-05T01:43:24.246Z,17.50
2019-01-05T01:46:13.825Z,18.65
2019-01-05T01:49:08.000Z,19.35
2019-01-05T01:52:03.331Z,20.62
2019-01-05T01:54:51.044Z,19.27
2019-01-05T01:57:49.232Z,23.98
2019-01-05T02:00:39.222Z,21.12
2019-01-05T02:03:33.719Z,19.05
2019-01-05T02:06:29.330Z,19.12
2019-01-05T02:09:37.135Z,17.90
2019-01-05T02:12:32.548Z,18.00
2019-01-05T02:15:23.145Z,20.52
2019-01-05T02:18:40.470Z,18.00
2019-01-05T02:22:05.033Z,16.93
2019-01-05T02:25:40.432Z,15.75
2019-01-05T02:29:15.278Z,17.48
2019-01-05T02:32:54.734Z,14.98
2019-01-05T02:36:22.996Z,21.45
2019-01-05T02:39:51.485Z,18.17
2019-01-05T02:43:24.998Z,17.77
2019-01-05T02:46:50.417Z,20.62
2019-01-05T02:50:22.498Z,21.75
2019-01-05T02:53:57.528Z,14.35
2019-01-05T02:57:27.473Z,17.50
2019-01-05T03:01:00.346Z,19.85
2019-01-05T03:04:29.967Z,18.55
2019-01-05T03:07:58.036Z,17.73
2019-01-05T03:11:35.236Z,18.62
2019-01-05T03:15:04.142Z,18.73
2019-01-05T03:18:42.949Z,19.80
2019-01-05T03:22:21.081Z,15.13
2019-01-05T03:25:47.721Z,15.28
2019-01-05T03:29:14.679Z,13.68
2019-01-05T03:32:37.846Z,15.38
2019-01-05T03:36:17.290Z,16.42
2019-01-05T03:39:49.564Z,19.32
2019-01-05T03:43:21.243Z,12.30
2019-01-05T03:46:51.483Z,15.72
2019-01-05T03:50:14.746Z,14.15
2019-01-05T03:53:39.222Z,14.00
2019-01-05T03:57:06.800Z,18.37
2019-01-05T04:00:47.470Z,16.82
2019-01-05T04:04:31.529Z,17.32
2019-01-05T04:08:09.225Z,17.92
2019-01-05T04:11:54.105Z,18.00
2019-01-05T04:15:23.105Z,15.00
2019-01-05T04:19:01.199Z,16.32
2019-01-05T04:22:40.569Z,12.55
2019-01-05T04:26:00.971Z,15.63
2019-01-05T04:29:22.484Z,14.83
2019-01-05T04:32:53.747Z,16.40
2019-01-05T04:36:46.711Z,19.87
2019-01-05T04:40:26.972Z,16.77
2019-01-05T04:43:46.251Z,14.35
2019-01-05T04:47:17.933Z,16.00
2019-01-05T04:50:53.164Z,15.53
2019-01-05T04:54:55.558Z,17.25
2019-01-05T04:58:18.808Z,22.87
2019-01-05T05:01:42.605Z,15.18
2019-01-05T05:05:04.763Z,16.30
2019-01-05T05:08:32.091Z,15.28
2019-01-05T05:12:00.703Z,16.67
2019-01-05T05:15:32.663Z,16.05
2019-01-05T05:18:58.392Z,16.60
2019-01-05T05:22:23.340Z,20.08
2019-01-05T05:26:00.891Z,17.07
2019-01-05T05:29:30.825Z,13.58
2019-01-05T05:33:18.476Z,15.83
2019-01-05T05:36:49.705Z,19.45
2019-01-05T05:40:31.919Z,15.80
2019-01-05T05:44:06.966Z,17.05
2019-01-05T05:47:41.598Z,15.45
2019-01-05T05:51:11.827Z,13.20
2019-01-05T05:54:35.504Z,18.62
2019-01-05T05:58:24.990Z,16.95
2019-01-05T06:02:12.425Z,16.30
2019-01-05T06:05:53.705Z,14.90
2019-01-05T06:09:27.012Z,13.55
2019-01-05T06:13:10.250Z,18.87
2019-01-05T06:16:29.822Z,15.53
2019-01-05T06:20:05.791Z,12.63
2019-01-05T06:23:40.146Z,17.40
2019-01-05T06:27:07.076Z,15.90
2019-01-05T06:30:49.996Z,18.98
2019-01-05T06:34:37.541Z,18.55
2019-01-05T06:38:11.757Z,14.38
2019-01-05T06:41:35.744Z,16.90
2019-01-05T06:45:04.756Z,16.10
2019-01-05T06:48:32.307Z,16.75
2019-01-05T06:52:11.861Z,17.45
2019-01-05T06:55:48.364Z,16.05
2019-01-05T06:59:21.340Z,18.67
2019-01-05T07:02:45.416Z,17.23
2019-01-05T07:06:11.038Z,13.93
2019-01-05T07:09:58.169Z,18.17
2019-01-05T07:13:38.852Z,12.95
2019-01-05T07:17:14.613Z,15.15
2019-01-05T07:20:44.568Z,15.93
2019-01-05T07:24:14.653Z,13.15
2019-01-05T07:27:42.434Z,14.13
2019-01-05T07:31:12.967Z,13.45
2019-01-05T07:34:45.961Z,21.50
2019-01-05T07:38:22.853Z,14.75
2019-01-05T07:41:50.317Z,14.80
2019-01-05T07:45:15.865Z,14.63
2019-01-05T07:48:41.557Z,14.53
2019-01-05T07:52:04.718Z,12.30
2019-01-05T07:55:45.311Z,13.48
2019-01-05T07:59:18.298Z,13.18
2019-01-05T08:02:45.761Z,12.45
2019-01-05T08:06:10.072Z,14.78
2019-01-05T08:09:51.354Z,12.15
2019-01-05T08:13:22.249Z,11.80
2019-01-05T08:17:05.317Z,18.30
2019-01-05T08:20:59.607Z,14.28
2019-01-05T08:24:34.658Z,14.47
2019-01-05T08:28:03.043Z,16.90
2019-01-05T08:31:31.218Z,15.53
2019-01-05T08:35:05.254Z,16.70
2019-01-05T08:38:46.227Z,16.67
2019-01-05T08:42:21.686Z,13.68
2019-01-05T08:46:03.883Z,12.03
2019-01-05T08:49:26.972Z,14.23
2019-01-05T08:52:42.440Z,26.95
2019-01-05T08:56:06.731Z,13.93
2019-01-05T08:59:22.840Z,9.90
2019-01-05T09:02:52.747Z,14.98
2019-01-05T09:06:23.112Z,15.55
2019-01-05T09:10:05.205Z,14.38
2019-01-05T09:13:35.733Z,13.70
2019-01-05T09:17:09.759Z,13.72
2019-01-05T09:20:46.623Z,14.05
2019-01-05T09:24:27.708Z,14.03
2019-01-05T09:28:04.794Z,14.07
2019-01-05T09:31:28.276Z,16.20
2019-01-05T09:35:01.138Z,19.12
2019-01-05T09:38:17.165Z,13.62
2019-01-05T09:41:56.600Z,16.42
2019-01-05T09:45:26.443Z,14.30
2019-01-05T09:49:02.694Z,12.30
2019-01-05T09:52:43.477Z,13.75
2019-01-05T09:56:26.298Z,13.80
2019-01-05T09:59:57.246Z,15.00
2019-01-05T10:03:35.467Z,13.65
2019-01-05T10:07:00.062Z,9.40
2019-01-05T10:10:27.528Z,12.07
2019-01-05T10:13:57.553Z,11.90
2019-01-05T10:17:50.924Z,14.58
2019-01-05T10:21:13.161Z,14.93
2019-01-05T10:24:59.693Z,11.25
2019-01-05T10:28:31.377Z,14.63
2019-01-05T10:32:15.700Z,14.65
2019-01-05T10:35:58.443Z,15.80
2019-01-05T10:39:33.509Z,11.22
2019-01-05T10:43:16.774Z,14.55
2019-01-05T10:46:46.335Z,11.83
2019-01-05T10:50:15.234Z,15.35
2019-01-05T10:57:36.069Z,24.12
2019-01-05T11:01:06.093Z,13.25
2019-01-05T11:04:29.009Z,16.73
2019-01-05T11:07:57.035Z,11.95
2019-01-05T11:11:39.958Z,14.98
2019-01-05T11:15:21.311Z,14.78
2019-01-05T11:18:45.650Z,18.23
2019-01-05T11:22:22.954Z,17.90
2019-01-05T11:25:59.318Z,15.83
2019-01-05T11:29:55.262Z,14.47
2019-01-05T11:33:18.417Z,11.97
2019-01-05T11:36:52.351Z,11.05
2019-01-05T11:40:14.798Z,21.65
2019-01-05T11:44:00.393Z,16.50
2019-01-05T11:47:22.409Z,16.05
2019-01-05T11:50:52.331Z,13.65
2019-01-05T11:54:08.735Z,13.48
2019-01-05T11:57:59.449Z,17.80
2019-01-05T12:01:21.854Z,27.15
2019-01-05T12:04:43.360Z,16.82
2019-01-05T12:08:12.647Z,12.63
2019-01-05T12:11:29.668Z,15.18
2019-01-05T12:14:58.188Z,13.50
2019-01-05T12:18:32.064Z,17.65
2019-01-05T12:22:03.826Z,14.23
2019-01-05T12:25:41.741Z,17.37
2019-01-05T12:29:11.262Z,15.48
2019-01-05T12:33:02.068Z,11.75
2019-01-05T12:36:20.234Z,14.95
2019-01-05T12:39:43.781Z,13.40
2019-01-05T12:43:36.649Z,15.90
2019-01-05T12:47:21.318Z,17.85
2019-01-05T12:50:56.664Z,18.30
2019-01-05T12:54:33.356Z,19.92
2019-01-05T12:58:13.419Z,27.55
2019-01-05T13:01:31.962Z,15.40
2019-01-05T13:05:07.320Z,27.93
2019-01-05T13:08:59.866Z,15.75
2019-01-05T13:12:33.374Z,18.95
2019-01-05T13:16:16.672Z,21.93
2019-01-05T13:20:11.929Z,21.37
2019-01-05T13:23:48.804Z,20.55
2019-01-05T13:27:30.494Z,15.08
2019-01-05T13:31:23.975Z,16.60
2019-01-05T13:35:10.591Z,17.55
2019-01-05T13:39:07.559Z,22.50
2019-01-05T13:42:17.406Z,28.42
2019-01-05T13:45:49.777Z,16.45
2019-01-05T13:49:25.030Z,18.35
2019-01-05T13:53:21.064Z,32.08
2019-01-05T13:56:22.949Z,20.32
2019-01-05T13:59:24.798Z,19.60
2019-01-05T14:02:14.178Z,23.20
2019-01-05T14:05:15.990Z,28.20
2019-01-05T14:08:03.973Z,29.52
2019-01-05T14:10:59.291Z,30.12
2019-01-05T14:13:52.858Z,24.07
2019-01-05T14:16:40.890Z,26.68
2019-01-05T14:19:31.291Z,28.47
2019-01-05T14:22:39.092Z,26.33
2019-01-05T14:25:31.431Z,33.50
2019-01-05T14:28:24.813Z,32.88
2019-01-05T14:31:15.371Z,23.35
2019-01-05T14:34:17.277Z,22.58
2019-01-05T14:37:13.204Z,25.75
2019-01-05T14:40:01.452Z,23.18
2019-01-05T14:42:49.814Z,24.63
2019-01-05T14:45:54.524Z,34.48
2019-01-05T14:48:42.667Z,25.77
2019-01-05T14:51:32.342Z,24.95
2019-01-05T14:54:41.007Z,26.10
2019-01-05T14:57:29.527Z,25.08
2019-01-05T15:00:30.977Z,23.00
2019-01-05T15:03:18.816Z,21.20
2019-01-05T15:06:08.210Z,21.12
2019-01-05T15:09:07.918Z,24.27
2019-01-05T15:11:56.148Z,25.72
2019-01-05T15:14:54.647Z,32.28
2019-01-05T15:17:43.027Z,28.42
2019-01-05T15:20:32.553Z,33.48
2019-01-05T15:23:20.399Z,27.45
2019-01-05T15:26:13.550Z,34.18
2019-01-05T15:29:02.925Z,28.70
2019-01-05T15:32:11.459Z,29.37
2019-01-05T15:35:00.929Z,32.93
2019-01-05T15:37:51.534Z,42.58
2019-01-05T15:40:43.762Z,43.10
2019-01-05T15:43:31.902Z,41.48
2019-01-05T15:46:27.547Z,101.75
2019-01-05T15:49:15.633Z,71.60
2019-01-05T15:52:05.041Z,75.57
2019-01-05T15:54:53.086Z,50.60
2019-01-05T15:57:51.975Z,61.18
2019-01-05T16:00:40.022Z,72.35
2019-01-05T16:03:30.939Z,85.87
2019-01-05T16:06:32.835Z,65.20
2019-01-05T16:09:34.546Z,47.50
2019-01-05T16:12:25.166Z,33.48
2019-01-05T16:15:31.364Z,36.05
2019-01-05T16:18:20.801Z,38.95
2019-01-05T16:21:09.768Z,32.58
2019-01-05T16:24:14.501Z,34.18
2019-01-05T16:27:01.210Z,51.95
2019-01-05T16:30:05.631Z,58.28
2019-01-05T16:32:57.977Z,92.08
2019-01-05T16:35:44.069Z,101.97
2019-01-05T16:38:43.282Z,100.53
2019-01-05T16:41:39.219Z,87.55
2019-01-05T16:44:24.618Z,68.62
2019-01-05T16:47:17.223Z,51.88
2019-01-05T16:50:06.606Z,42.20
2019-01-05T16:52:56.180Z,58.58
2019-01-05T16:56:03.890Z,65.97
2019-01-05T16:58:56.121Z,30.65
2019-01-05T17:01:51.451Z,37.78
2019-01-05T17:04:56.988Z,38.53
2019-01-05T17:07:49.633Z,45.00
2019-01-05T17:10:48.233Z,28.23
2019-01-05T17:13:43.427Z,30.57
2019-01-05T17:16:48.368Z,33.85
2019-01-05T17:19:36.968Z,29.98
2019-01-05T17:22:40.668Z,29.27
2019-01-05T17:25:28.972Z,24.55
2019-01-05T17:28:25.028Z,24.85
2019-01-05T17:31:15.342Z,23.22
2019-01-05T17:34:05.159Z,22.15
2019-01-05T17:36:58.045Z,23.25
2019-01-05T17:39:39.218Z,22.48
2019-01-05T17:42:30.028Z,30.35
2019-01-05T17:45:14.576Z,37.13
2019-01-05T17:48:07.160Z,21.80
2019-01-05T17:51:03.459Z,20.35
2019-01-05T17:53:59.019Z,29.37
2019-01-05T17:56:51.629Z,30.20
2019-01-05T17:59:37.010Z,28.60
2019-01-05T18:02:26.389Z,22.62
2019-01-05T18:05:14.329Z,20.15
2019-01-05T18:08:04.099Z,16.37
2019-01-05T18:10:52.450Z,19.70
2019-01-05T18:13:40.494Z,23.85
2019-01-05T18:16:28.428Z,19.10
2019-01-05T18:19:19.332Z,18.85
2019-01-05T18:22:07.056Z,20.68
2019-01-05T18:24:55.615Z,20.00
2019-01-05T18:27:45.819Z,18.98
2019-01-05T18:30:34.980Z,24.00
2019-01-05T18:33:42.818Z,16.40
2019-01-05T18:36:41.161Z,14.95
2019-01-05T18:39:42.562Z,17.23
2019-01-05T18:42:39.369Z,14.25
2019-01-05T18:45:47.646Z,16.27
2019-01-05T18:48:37.098Z,18.50
2019-01-05T18:51:39.331Z,15.38
2019-01-05T18:54:28.911Z,21.33
2019-01-05T18:57:27.320Z,16.50
2019-01-05T19:00:15.977Z,30.55
2019-01-05T19:03:23.480Z,17.27
2019-01-05T19:06:21.852Z,16.27
2019-01-05T19:09:13.765Z,12.53
2019-01-05T19:12:09.847Z,14.03
2019-01-05T19:14:58.280Z,15.18
2019-01-05T19:17:47.567Z,11.15
2019-01-05T19:20:40.470Z,15.58
2019-01-05T19:23:31.283Z,20.02
2019-01-05T19:26:23.722Z,13.38
2019-01-05T19:29:11.938Z,11.48
2019-01-05T19:32:01.392Z,12.70
2019-01-05T19:34:50.413Z,12.33
2019-01-05T19:37:38.372Z,11.33
2019-01-05T19:40:35.806Z,11.22
2019-01-05T19:43:24.252Z,9.83
2019-01-05T19:46:32.372Z,16.55
2019-01-05T19:49:24.545Z,10.93
2019-01-05T19:52:12.637Z,10.43
2019-01-05T19:55:04.060Z,9.45
2019-01-05T19:57:53.681Z,12.10
2019-01-05T20:00:51.192Z,13.20
2019-01-05T20:03:47.455Z,17.25
2019-01-05T20:06:55.584Z,18.48
2019-01-05T20:09:45.219Z,15.93
2019-01-05T20:12:37.348Z,14.28
2019-01-05T20:15:28.210Z,15.48
2019-01-05T20:18:20.613Z,18.10
2019-01-05T20:21:09.054Z,20.70
2019-01-05T20:23:59.453Z,17.95
2019-01-05T20:26:48.004Z,12.37
2019-01-05T20:29:37.164Z,15.78
2019-01-05T20:32:30.952Z,13.43
2019-01-05T20:35:20.591Z,12.35
2019-01-05T20:38:10.623Z,10.35
2019-01-05T20:40:58.968Z,9.53
2019-01-05T20:43:48.637Z,13.58
2019-01-05T20:46:42.206Z,11.78
2019-01-05T20:49:40.788Z,11.70
2019-01-05T20:52:38.979Z,10.43
2019-01-05T20:55:27.232Z,10.48
2019-01-05T20:58:28.975Z,10.98
2019-01-05T21:01:18.073Z,11.30
2019-01-05T21:04:06.514Z,12.43
2019-01-05T21:07:12.373Z,10.72
2019-01-05T21:10:00.220Z,13.30
2019-01-05T21:12:48.144Z,12.23
2019-01-05T21:15:53.631Z,10.95
2019-01-05T21:18:55.236Z,13.15
2019-01-05T21:21:44.423Z,11.20
2019-01-05T21:24:47.665Z,9.68
2019-01-05T21:27:48.960Z,9.98
2019-01-05T21:30:48.054Z,11.20
2019-01-05T21:33:48.591Z,9.85
2019-01-05T21:36:37.450Z,10.55
2019-01-05T21:39:46.270Z,9.98
2019-01-05T21:42:35.219Z,11.18
2019-01-05T21:45:25.742Z,9.43
2019-01-05T21:48:26.588Z,13.75
2019-01-05T21:51:18.718Z,11.75
2019-01-05T21:54:10.962Z,10.00
2019-01-05T21:57:12.417Z,16.52
2019-01-05T22:00:10.178Z,16.67
2019-01-05T22:03:13.386Z,12.68
2019-01-05T22:06:05.083Z,11.33
2019-01-05T22:08:52.025Z,11.22
2019-01-05T22:11:42.747Z,11.57
2019-01-05T22:14:47.483Z,11.43
2019-01-05T22:17:35.930Z,15.65
2019-01-05T22:20:34.614Z,11.30
2019-01-05T22:23:24.178Z,14.28
2019-01-05T22:26:16.225Z,18.30
2019-01-05T22:29:03.928Z,18.98
2019-01-05T22:31:53.364Z,14.15
2019-01-05T22:34:43.008Z,16.40
2019-01-05T22:37:38.867Z,13.32
2019-01-05T22:40:37.638Z,15.25
2019-01-05T22:43:36.429Z,12.58
2019-01-05T22:46:28.767Z,15.20
2019-01-05T22:49:23.767Z,14.90
2019-01-05T22:52:19.395Z,12.28
2019-01-05T22:55:08.678Z,13.08
2019-01-05T22:57:57.530Z,13.55
2019-01-05T23:00:45.458Z,12.20
2019-01-05T23:03:33.803Z,14.15
2019-01-05T23:06:38.850Z,12.90
2019-01-05T23:09:28.546Z,11.45
2019-01-05T23:12:09.854Z,12.82
2019-01-05T23:14:57.467Z,13.28
2019-01-05T23:17:59.206Z,13.70
2019-01-05T23:20:50.319Z,14.00
2019-01-05T23:23:44.568Z,12.33
2019-01-05T23:26:33.157Z,14.05
2019-01-05T23:29:29.100Z,15.70
2019-01-05T23:32:37.191Z,15.65
2019-01-05T23:35:27.090Z,15.28
2019-01-05T23:38:15.327Z,11.83
2019-01-05T23:41:03.568Z,11.40
2019-01-05T23:44:12.200Z,14.93
2019-01-05T23:47:01.573Z,14.68
2019-01-05T23:49:51.959Z,14.33
2019-01-05T23:52:44.918Z,16.45
2019-01-05T23:55:41.669Z,15.40
2019-01-05T23:58:43.844Z,19.65
